createdAt,value
2023-04-28T00:00:07.995Z,-0.21
2023-04-28T00:02:55.615Z,-0.05
2023-04-28T00:05:25.781Z,-0.04
2023-04-28T00:07:53.375Z,-0.07
2023-04-28T00:10:20.645Z,0.12
2023-04-28T00:12:48.141Z,0.15
2023-04-28T00:15:15.765Z,0.16
2023-04-28T00:17:43.727Z,0.16
2023-04-28T00:20:11.642Z,0.06
2023-04-28T00:22:39.218Z,-0.03
2023-04-28T00:25:07.070Z,0.04
2023-04-28T00:27:35.686Z,-0.04
2023-04-28T00:30:03.012Z,-0.11
2023-04-28T00:32:32.811Z,-0.25
2023-04-28T00:34:59.972Z,-0.22
2023-04-28T00:37:27.453Z,-0.21
2023-04-28T00:39:56.097Z,-0.16
2023-04-28T00:42:24.302Z,-0.13
2023-04-28T00:44:51.684Z,-0.03
2023-04-28T00:47:22.079Z,-0.19
2023-04-28T00:49:49.853Z,-0.10
2023-04-28T00:52:17.389Z,-0.21
2023-04-28T00:54:44.656Z,-0.43
2023-04-28T00:57:12.444Z,-0.39
2023-04-28T00:59:39.719Z,-0.50
2023-04-28T01:02:07.976Z,-0.44
2023-04-28T01:04:36.411Z,-0.47
2023-04-28T01:07:04.384Z,-0.43
2023-04-28T01:09:31.995Z,-0.44
2023-04-28T01:12:00.232Z,-0.48
2023-04-28T01:14:42.956Z,-0.45
2023-04-28T01:17:10.962Z,-0.58
2023-04-28T01:19:38.437Z,-0.62
2023-04-28T01:22:06.133Z,-0.65
2023-04-28T01:24:33.445Z,-0.65
2023-04-28T01:27:04.989Z,-0.62
2023-04-28T01:29:32.290Z,-0.53
2023-04-28T01:31:59.935Z,-0.63
2023-04-28T01:34:27.229Z,-0.74
2023-04-28T01:36:54.745Z,-0.73
2023-04-28T01:39:22.001Z,-0.83
2023-04-28T01:41:49.473Z,-0.67
2023-04-28T01:44:16.961Z,-0.82
2023-04-28T01:46:44.615Z,-0.78
2023-04-28T01:49:11.748Z,-0.74
2023-04-28T01:51:40.557Z,-0.73
2023-04-28T01:54:08.519Z,-0.88
2023-04-28T01:56:36.369Z,-0.92
2023-04-28T01:59:06.737Z,-0.92
2023-04-28T02:01:35.242Z,-0.93
2023-04-28T02:04:02.752Z,-0.98
2023-04-28T02:06:33.634Z,-0.96
2023-04-28T02:09:01.199Z,-0.96
2023-04-28T02:11:28.712Z,-0.95
2023-04-28T02:13:59.864Z,-1.08
2023-04-28T02:16:27.556Z,-1.03
2023-04-28T02:18:54.795Z,-1.03
2023-04-28T02:21:22.380Z,-1.09
2023-04-28T02:23:50.568Z,-1.14
2023-04-28T02:26:18.096Z,-1.18
2023-04-28T02:28:45.277Z,-1.14
2023-04-28T02:31:15.795Z,-1.17
2023-04-28T02:33:43.264Z,-1.22
2023-04-28T02:36:11.704Z,-1.35
2023-04-28T02:38:41.691Z,-1.31
2023-04-28T02:41:12.274Z,-1.48
2023-04-28T02:43:39.547Z,-1.50
2023-04-28T02:46:07.373Z,-1.61
2023-04-28T02:48:36.260Z,-1.63
2023-04-28T02:51:04.062Z,-1.56
2023-04-28T02:53:32.674Z,-1.48
2023-04-28T02:56:02.269Z,-1.47
2023-04-28T02:58:30.164Z,-1.55
2023-04-28T03:00:57.652Z,-1.64
2023-04-28T03:03:25.176Z,-1.61
2023-04-28T03:05:52.916Z,-1.63
2023-04-28T03:08:21.092Z,-1.67
2023-04-28T03:10:48.607Z,-1.61
2023-04-28T03:13:16.059Z,-1.71
2023-04-28T03:15:45.776Z,-1.60
2023-04-28T03:18:13.468Z,-1.46
2023-04-28T03:20:40.924Z,-1.79
2023-04-28T03:23:09.415Z,-1.91
2023-04-28T03:25:37.007Z,-1.93
2023-04-28T03:28:04.391Z,-1.98
2023-04-28T03:30:32.274Z,-2.07
2023-04-28T03:32:59.871Z,-2.10
2023-04-28T03:35:27.808Z,-2.09
2023-04-28T03:37:57.269Z,-2.11
2023-04-28T03:40:26.058Z,-2.18
2023-04-28T03:43:13.158Z,-1.93
2023-04-28T03:45:47.670Z,-1.90
2023-04-28T03:48:15.045Z,-1.70
2023-04-28T03:50:44.475Z,-1.73
2023-04-28T03:53:12.247Z,-1.69
2023-04-28T03:55:40.069Z,-1.72
2023-04-28T03:58:07.282Z,-1.63
2023-04-28T04:00:35.421Z,-1.67
2023-04-28T04:03:02.895Z,-1.58
2023-04-28T04:05:31.855Z,-1.45
2023-04-28T04:07:59.273Z,-1.58
2023-04-28T04:10:27.998Z,-1.55
2023-04-28T04:12:55.302Z,-1.59
2023-04-28T04:15:22.929Z,-1.65
2023-04-28T04:17:50.281Z,-1.57
2023-04-28T04:20:17.919Z,-1.53
2023-04-28T04:22:46.480Z,-1.52
2023-04-28T04:25:14.817Z,-1.51
2023-04-28T04:27:43.927Z,-1.39
2023-04-28T04:30:12.032Z,-1.37
2023-04-28T04:32:39.565Z,-1.29
2023-04-28T04:35:07.819Z,-1.16
2023-04-28T04:37:35.610Z,-1.15
2023-04-28T04:40:07.823Z,-0.93
2023-04-28T04:42:41.359Z,-0.94
2023-04-28T04:45:12.838Z,-0.68
2023-04-28T04:47:41.005Z,-0.78
2023-04-28T04:50:09.845Z,-0.62
2023-04-28T04:52:37.688Z,-0.37
2023-04-28T04:55:05.822Z,-0.54
2023-04-28T04:57:33.676Z,-0.49
2023-04-28T05:00:07.589Z,-0.30
2023-04-28T05:02:35.269Z,0.09
2023-04-28T05:05:19.736Z,0.24
2023-04-28T05:07:54.187Z,0.39
2023-04-28T05:10:22.788Z,0.45
2023-04-28T05:12:49.939Z,0.58
2023-04-28T05:15:19.025Z,0.69
2023-04-28T05:18:10.030Z,0.70
2023-04-28T05:20:38.420Z,0.87
2023-04-28T05:23:06.916Z,1.07
2023-04-28T05:25:34.529Z,1.32
2023-04-28T05:28:07.653Z,1.49
2023-04-28T05:30:35.656Z,1.68
2023-04-28T05:33:03.149Z,1.76
2023-04-28T05:35:31.875Z,1.90
2023-04-28T05:37:59.591Z,1.99
2023-04-28T05:40:27.790Z,1.92
2023-04-28T05:42:56.512Z,2.12
2023-04-28T05:45:28.409Z,2.23
2023-04-28T05:47:56.053Z,2.49
2023-04-28T05:50:23.898Z,2.69
2023-04-28T05:52:51.599Z,2.87
2023-04-28T05:55:19.131Z,3.00
2023-04-28T05:57:52.971Z,3.32
2023-04-28T06:00:22.326Z,3.45
2023-04-28T06:02:52.556Z,3.44
2023-04-28T06:05:21.729Z,3.62
2023-04-28T06:07:51.965Z,3.74
2023-04-28T06:10:22.433Z,4.02
2023-04-28T06:12:49.639Z,4.15
2023-04-28T06:15:17.243Z,4.32
2023-04-28T06:17:44.664Z,4.20
2023-04-28T06:20:14.045Z,4.29
2023-04-28T06:22:41.636Z,4.50
2023-04-28T06:25:09.722Z,4.60
2023-04-28T06:27:46.428Z,4.83
2023-04-28T06:30:22.327Z,5.14
2023-04-28T06:32:49.739Z,5.28
2023-04-28T06:35:18.512Z,5.32
2023-04-28T06:37:45.805Z,5.36
2023-04-28T06:40:13.512Z,5.46
2023-04-28T06:42:45.979Z,5.57
2023-04-28T06:45:20.149Z,5.80
2023-04-28T06:47:47.505Z,6.08
2023-04-28T06:50:15.070Z,6.38
2023-04-28T06:52:42.261Z,6.59
2023-04-28T06:55:10.111Z,6.74
2023-04-28T06:57:38.800Z,6.95
2023-04-28T07:00:06.920Z,7.16
2023-04-28T07:02:34.486Z,7.25
2023-04-28T07:05:02.065Z,7.53
2023-04-28T07:07:29.991Z,7.71
2023-04-28T07:09:57.657Z,7.87
2023-04-28T07:12:25.444Z,7.89
2023-04-28T07:14:52.955Z,7.93
2023-04-28T07:17:20.222Z,8.18
2023-04-28T07:19:50.083Z,8.19
2023-04-28T07:22:18.064Z,8.10
2023-04-28T07:24:45.819Z,8.11
2023-04-28T07:27:13.076Z,8.33
2023-04-28T07:29:40.734Z,8.31
2023-04-28T07:32:10.955Z,8.54
2023-04-28T07:34:38.657Z,8.89
2023-04-28T07:37:07.048Z,9.21
2023-04-28T07:39:35.576Z,9.49
2023-04-28T07:42:03.773Z,9.77
2023-04-28T07:44:34.375Z,10.06
2023-04-28T07:47:02.300Z,10.39
2023-04-28T07:49:30.481Z,10.65
2023-04-28T07:51:58.174Z,11.01
2023-04-28T07:54:25.916Z,11.14
2023-04-28T07:56:53.193Z,11.42
2023-04-28T07:59:21.039Z,11.69
2023-04-28T08:01:48.400Z,11.90
2023-04-28T08:04:16.227Z,12.15
2023-04-28T08:06:43.756Z,12.25
2023-04-28T08:09:11.546Z,12.36
2023-04-28T08:11:38.728Z,12.38
2023-04-28T08:14:06.316Z,12.27
2023-04-28T08:16:36.819Z,12.40
2023-04-28T08:19:05.530Z,12.47
2023-04-28T08:21:33.030Z,12.84
2023-04-28T08:24:01.253Z,12.98
2023-04-28T08:26:28.573Z,13.17
2023-04-28T08:28:56.142Z,13.18
2023-04-28T08:31:24.173Z,13.22
2023-04-28T08:33:51.929Z,13.37
2023-04-28T08:36:19.314Z,13.35
2023-04-28T08:38:47.716Z,13.26
2023-04-28T08:41:19.527Z,13.19
2023-04-28T08:43:47.131Z,13.48
2023-04-28T08:46:16.386Z,13.51
2023-04-28T08:48:47.615Z,13.67
2023-04-28T08:51:40.879Z,13.50
2023-04-28T08:54:25.492Z,13.35
2023-04-28T08:56:53.793Z,13.25
2023-04-28T08:59:21.630Z,13.19
2023-04-28T09:01:50.378Z,13.34
2023-04-28T09:04:19.259Z,13.73
2023-04-28T09:06:47.108Z,13.75
2023-04-28T09:09:33.288Z,13.91
2023-04-28T09:12:05.060Z,14.06
2023-04-28T09:14:35.107Z,14.29
2023-04-28T09:17:03.782Z,14.45
2023-04-28T09:19:36.491Z,14.73
2023-04-28T09:22:17.608Z,15.41
2023-04-28T09:24:53.434Z,16.28
2023-04-28T09:27:28.234Z,15.83
2023-04-28T09:29:55.988Z,15.96
2023-04-28T09:32:24.873Z,16.26
2023-04-28T09:34:58.070Z,16.63
2023-04-28T09:37:27.608Z,16.90
2023-04-28T09:39:55.575Z,17.14
2023-04-28T09:42:36.520Z,17.84
2023-04-28T09:45:09.070Z,18.40
2023-04-28T09:47:44.234Z,18.83
2023-04-28T09:50:15.174Z,19.45
2023-04-28T09:52:57.042Z,19.66
2023-04-28T09:55:25.183Z,19.61
2023-04-28T09:57:55.039Z,19.44
2023-04-28T10:00:23.656Z,19.10
2023-04-28T10:02:52.206Z,19.44
2023-04-28T10:05:22.479Z,19.67
2023-04-28T10:07:50.497Z,20.06
2023-04-28T10:10:18.788Z,20.65
2023-04-28T10:12:46.377Z,21.11
2023-04-28T10:15:13.880Z,21.54
2023-04-28T10:17:41.074Z,21.71
2023-04-28T10:20:09.302Z,21.96
2023-04-28T10:23:15.086Z,22.56
2023-04-28T10:25:49.651Z,23.09
2023-04-28T10:28:17.616Z,23.49
2023-04-28T10:31:15.273Z,24.20
2023-04-28T10:33:43.290Z,24.63
2023-04-28T10:36:11.536Z,24.73
2023-04-28T10:39:18.970Z,25.03
2023-04-28T10:41:48.065Z,25.12
2023-04-28T10:44:30.577Z,24.46
2023-04-28T10:47:10.649Z,23.79
2023-04-28T10:49:57.810Z,24.00
2023-04-28T10:52:35.522Z,23.71
2023-04-28T10:55:30.849Z,24.16
2023-04-28T10:58:16.745Z,24.98
2023-04-28T11:00:45.683Z,25.71
2023-04-28T11:04:11.003Z,24.27
2023-04-28T11:07:08.013Z,23.91
2023-04-28T11:09:35.156Z,24.11
2023-04-28T11:12:07.158Z,24.20
2023-04-28T11:14:36.392Z,24.11
2023-04-28T11:17:08.804Z,24.22
2023-04-28T11:19:46.342Z,24.71
2023-04-28T11:22:18.112Z,25.69
2023-04-28T11:24:59.083Z,26.59
2023-04-28T11:27:28.393Z,26.87
2023-04-28T11:29:56.053Z,27.10
2023-04-28T11:32:32.269Z,26.27
2023-04-28T11:34:59.939Z,25.62
2023-04-28T11:37:27.709Z,25.66
2023-04-28T11:39:55.158Z,26.22
2023-04-28T11:42:22.868Z,26.58
2023-04-28T11:44:54.836Z,27.42
2023-04-28T11:47:30.047Z,28.27
2023-04-28T11:49:58.151Z,28.74
2023-04-28T11:52:27.539Z,28.13
2023-04-28T11:55:03.026Z,28.17
2023-04-28T11:57:33.516Z,29.06
2023-04-28T12:00:22.241Z,29.98
2023-04-28T12:02:50.077Z,28.71
2023-04-28T12:05:17.744Z,27.59
2023-04-28T12:07:45.978Z,27.44
2023-04-28T12:10:16.152Z,28.19
2023-04-28T12:12:50.710Z,28.69
2023-04-28T12:16:06.059Z,28.34
2023-04-28T12:18:17.086Z,27.66
2023-04-28T12:20:44.882Z,27.30
2023-04-28T12:23:13.338Z,26.40
2023-04-28T12:25:45.765Z,27.36
2023-04-28T12:28:13.481Z,28.26
2023-04-28T12:30:45.513Z,28.94
2023-04-28T12:33:27.950Z,29.90
2023-04-28T12:35:56.796Z,30.40
2023-04-28T12:38:28.931Z,30.69
2023-04-28T12:40:56.790Z,30.73
2023-04-28T12:43:24.641Z,30.38
2023-04-28T12:45:53.982Z,29.39
2023-04-28T12:48:24.012Z,28.80
2023-04-28T12:50:52.142Z,28.51
2023-04-28T12:53:19.965Z,27.97
2023-04-28T12:55:47.396Z,26.40
2023-04-28T12:58:15.329Z,25.99
2023-04-28T13:00:42.823Z,25.33
2023-04-28T13:03:10.661Z,26.06
2023-04-28T13:05:38.066Z,26.91
2023-04-28T13:08:05.852Z,27.60
2023-04-28T13:10:33.029Z,28.34
2023-04-28T13:13:00.575Z,29.21
2023-04-28T13:15:27.890Z,30.28
2023-04-28T13:17:58.339Z,31.08
2023-04-28T13:20:25.639Z,31.39
2023-04-28T13:22:53.142Z,30.60
2023-04-28T13:25:20.983Z,30.53
2023-04-28T13:27:48.544Z,30.05
2023-04-28T13:30:15.768Z,29.62
2023-04-28T13:32:45.820Z,29.82
2023-04-28T13:35:13.810Z,29.79
2023-04-28T13:37:46.050Z,28.80
2023-04-28T13:40:13.786Z,27.70
2023-04-28T13:42:41.519Z,28.21
2023-04-28T13:45:09.439Z,28.98
2023-04-28T13:47:37.114Z,29.72
2023-04-28T13:50:04.641Z,30.30
2023-04-28T13:52:32.510Z,30.74
2023-04-28T13:54:59.748Z,30.93
2023-04-28T13:57:29.893Z,30.02
2023-04-28T13:59:57.141Z,29.50
2023-04-28T14:02:24.990Z,28.72
2023-04-28T14:04:53.982Z,28.08
2023-04-28T14:07:22.485Z,28.14
2023-04-28T14:09:53.512Z,28.16
2023-04-28T14:12:21.554Z,27.94
2023-04-28T14:14:49.528Z,26.93
2023-04-28T14:17:17.396Z,26.43
2023-04-28T14:19:44.786Z,25.99
2023-04-28T14:22:12.392Z,26.19
2023-04-28T14:24:39.554Z,25.29
2023-04-28T14:27:07.665Z,25.42
2023-04-28T14:29:34.922Z,26.16
2023-04-28T14:32:02.556Z,26.04
2023-04-28T14:34:30.420Z,25.13
2023-04-28T14:37:00.772Z,24.96
2023-04-28T14:39:28.098Z,25.12
2023-04-28T14:41:55.665Z,25.21
2023-04-28T14:44:22.958Z,25.89
2023-04-28T14:46:50.805Z,27.01
2023-04-28T14:49:18.186Z,27.29
2023-04-28T14:51:46.802Z,26.31
2023-04-28T14:54:14.139Z,25.61
2023-04-28T14:56:41.731Z,25.41
2023-04-28T14:59:10.047Z,24.90
2023-04-28T15:01:38.439Z,24.04
2023-04-28T15:04:08.052Z,24.38
2023-04-28T15:06:36.133Z,24.84
2023-04-28T15:09:03.570Z,24.93
2023-04-28T15:11:32.866Z,24.32
2023-04-28T15:14:00.063Z,23.74
2023-04-28T15:16:28.298Z,23.00
2023-04-28T15:18:55.732Z,22.29
2023-04-28T15:21:23.808Z,21.72
2023-04-28T15:23:51.122Z,21.76
2023-04-28T15:26:18.663Z,22.62
2023-04-28T15:28:47.001Z,23.80
2023-04-28T15:31:14.667Z,24.82
2023-04-28T15:33:42.141Z,25.33
2023-04-28T15:36:09.885Z,25.35
2023-04-28T15:38:38.979Z,24.46
2023-04-28T15:41:07.403Z,23.35
2023-04-28T15:43:37.647Z,22.51
2023-04-28T15:46:11.322Z,20.72
2023-04-28T15:48:39.828Z,18.98
2023-04-28T15:51:07.788Z,17.87
2023-04-28T15:53:35.115Z,17.01
2023-04-28T15:56:04.107Z,16.64
2023-04-28T15:58:34.325Z,16.52
2023-04-28T16:01:02.271Z,16.56
2023-04-28T16:03:29.949Z,16.70
2023-04-28T16:06:01.253Z,16.80
2023-04-28T16:08:29.498Z,16.87
2023-04-28T16:10:57.097Z,16.73
2023-04-28T16:13:27.283Z,16.46
2023-04-28T16:15:55.026Z,16.34
2023-04-28T16:18:22.180Z,16.34
2023-04-28T16:20:49.946Z,16.31
2023-04-28T16:23:17.361Z,16.22
2023-04-28T16:25:44.954Z,16.14
2023-04-28T16:28:12.200Z,15.91
2023-04-28T16:30:39.714Z,15.78
2023-04-28T16:33:08.652Z,15.70
2023-04-28T16:35:36.977Z,15.60
2023-04-28T16:38:04.332Z,15.42
2023-04-28T16:40:31.911Z,15.38
2023-04-28T16:42:59.148Z,15.31
2023-04-28T16:45:26.770Z,15.25
2023-04-28T16:47:54.031Z,15.13
2023-04-28T16:50:21.607Z,15.13
2023-04-28T16:52:48.967Z,15.02
2023-04-28T16:55:16.860Z,14.94
2023-04-28T16:57:44.074Z,14.82
2023-04-28T17:00:12.273Z,14.70
2023-04-28T17:02:39.837Z,14.60
2023-04-28T17:05:08.140Z,14.52
2023-04-28T17:07:35.607Z,14.45
2023-04-28T17:10:03.384Z,14.40
2023-04-28T17:12:30.834Z,14.29
2023-04-28T17:14:58.485Z,14.10
2023-04-28T17:17:26.566Z,14.06
2023-04-28T17:19:55.250Z,13.93
2023-04-28T17:22:22.706Z,13.79
2023-04-28T17:24:50.238Z,13.57
2023-04-28T17:27:17.536Z,13.54
2023-04-28T17:29:45.151Z,13.43
2023-04-28T17:32:12.689Z,13.28
2023-04-28T17:34:41.264Z,13.18
2023-04-28T17:37:08.627Z,12.97
2023-04-28T17:39:36.390Z,12.83
2023-04-28T17:42:04.141Z,12.62
2023-04-28T17:44:31.974Z,12.46
2023-04-28T17:47:00.091Z,12.36
2023-04-28T17:49:27.652Z,12.19
2023-04-28T17:51:54.942Z,12.16
2023-04-28T17:54:22.481Z,12.14
2023-04-28T17:56:50.931Z,12.05
2023-04-28T17:59:18.567Z,12.03
2023-04-28T18:01:45.747Z,11.88
2023-04-28T18:04:13.380Z,11.82
2023-04-28T18:06:40.604Z,11.74
2023-04-28T18:09:08.153Z,11.61
2023-04-28T18:11:35.358Z,11.64
2023-04-28T18:14:02.959Z,11.55
2023-04-28T18:16:30.449Z,11.45
2023-04-28T18:19:01.403Z,11.35
2023-04-28T18:21:28.754Z,11.32
2023-04-28T18:23:56.276Z,11.26
2023-04-28T18:26:23.477Z,11.24
2023-04-28T18:28:51.152Z,11.16
2023-04-28T18:31:18.430Z,11.12
2023-04-28T18:33:46.117Z,11.07
2023-04-28T18:36:13.378Z,11.02
2023-04-28T18:38:41.498Z,10.97
2023-04-28T18:41:17.477Z,10.83
2023-04-28T18:43:45.261Z,10.69
2023-04-28T18:46:12.647Z,10.59
2023-04-28T18:48:40.521Z,10.53
2023-04-28T18:51:07.918Z,10.41
2023-04-28T18:53:36.536Z,10.35
2023-04-28T18:56:03.880Z,10.15
2023-04-28T18:58:31.504Z,10.04
2023-04-28T19:00:58.755Z,9.96
2023-04-28T19:03:26.955Z,9.73
2023-04-28T19:05:54.428Z,9.63
2023-04-28T19:08:21.955Z,9.57
2023-04-28T19:10:49.457Z,9.45
2023-04-28T19:13:17.502Z,9.50
2023-04-28T19:15:44.690Z,9.49
2023-04-28T19:18:12.786Z,9.44
2023-04-28T19:20:42.291Z,9.50
2023-04-28T19:23:09.932Z,9.48
2023-04-28T19:25:37.522Z,9.53
2023-04-28T19:28:06.353Z,9.47
2023-04-28T19:30:33.761Z,9.48
2023-04-28T19:33:01.412Z,9.42
2023-04-28T19:35:28.754Z,9.32
2023-04-28T19:37:56.279Z,9.30
2023-04-28T19:40:23.654Z,9.25
2023-04-28T19:42:51.394Z,9.17
2023-04-28T19:45:18.597Z,9.16
2023-04-28T19:47:46.283Z,9.20
2023-04-28T19:50:13.616Z,9.23
2023-04-28T19:52:41.941Z,9.25
2023-04-28T19:55:09.737Z,9.33
2023-04-28T19:57:37.437Z,9.35
2023-04-28T20:00:05.348Z,9.34
2023-04-28T20:02:35.630Z,9.27
2023-04-28T20:05:03.920Z,9.30
2023-04-28T20:07:31.995Z,9.33
2023-04-28T20:09:59.882Z,9.25
2023-04-28T20:12:27.553Z,9.32
2023-04-28T20:14:54.865Z,9.27
2023-04-28T20:17:23.263Z,9.21
2023-04-28T20:19:51.267Z,9.25
2023-04-28T20:22:19.064Z,9.18
2023-04-28T20:27:38.266Z,8.94
2023-04-28T20:30:06.684Z,8.90
2023-04-28T20:32:34.411Z,8.82
2023-04-28T20:35:03.085Z,8.79
2023-04-28T20:37:30.614Z,8.72
2023-04-28T20:39:58.050Z,8.73
2023-04-28T20:42:26.220Z,8.66
2023-04-28T20:44:53.487Z,8.66
2023-04-28T20:47:21.032Z,8.62
2023-04-28T20:49:48.449Z,8.61
2023-04-28T20:52:16.363Z,8.62
2023-04-28T20:54:44.037Z,8.54
2023-04-28T20:57:11.630Z,8.62
2023-04-28T20:59:38.840Z,8.62
2023-04-28T21:02:09.215Z,8.62
2023-04-28T21:04:36.859Z,8.55
2023-04-28T21:07:04.576Z,8.53
2023-04-28T21:09:31.906Z,8.46
2023-04-28T21:11:59.509Z,8.41
2023-04-28T21:14:27.118Z,8.44
2023-04-28T21:16:55.659Z,8.34
2023-04-28T21:19:23.022Z,8.41
2023-04-28T21:21:50.648Z,8.36
2023-04-28T21:24:17.830Z,8.46
2023-04-28T21:26:45.647Z,8.54
2023-04-28T21:29:12.945Z,8.56
2023-04-28T21:31:40.483Z,8.50
2023-04-28T21:34:08.065Z,8.63
2023-04-28T21:36:35.946Z,8.58
2023-04-28T21:39:04.774Z,8.63
2023-04-28T21:41:32.490Z,8.65
2023-04-28T21:44:00.169Z,8.65
2023-04-28T21:46:28.136Z,8.66
2023-04-28T21:48:55.607Z,8.70
2023-04-28T21:51:23.243Z,8.51
2023-04-28T21:53:50.439Z,8.60
2023-04-28T21:56:18.159Z,8.64
2023-04-28T21:58:45.801Z,8.63
2023-04-28T22:01:17.157Z,8.66
2023-04-28T22:03:48.139Z,8.68
2023-04-28T22:06:17.177Z,8.61
2023-04-28T22:08:44.612Z,8.60
2023-04-28T22:11:12.640Z,8.42
2023-04-28T22:13:39.929Z,8.36
2023-04-28T22:16:07.744Z,8.36
2023-04-28T22:18:35.107Z,8.37
2023-04-28T22:21:02.613Z,8.33
2023-04-28T22:23:29.850Z,8.39
2023-04-28T22:26:00.264Z,8.32
2023-04-28T22:28:27.589Z,8.46
2023-04-28T22:30:55.254Z,8.52
2023-04-28T22:33:22.551Z,8.54
2023-04-28T22:35:50.458Z,8.57
2023-04-28T22:38:17.669Z,8.62
2023-04-28T22:40:46.121Z,8.72
2023-04-28T22:43:13.243Z,8.51
2023-04-28T22:45:42.312Z,8.56
2023-04-28T22:48:10.409Z,8.47
2023-04-28T22:50:38.567Z,8.45
2023-04-28T22:53:05.726Z,8.44
2023-04-28T22:55:36.308Z,8.39
2023-04-28T22:58:03.897Z,8.38
2023-04-28T23:00:32.009Z,8.41
2023-04-28T23:02:59.354Z,8.48
2023-04-28T23:05:27.150Z,8.45
2023-04-28T23:07:56.336Z,8.40
2023-04-28T23:10:23.838Z,8.39
2023-04-28T23:12:51.013Z,8.33
2023-04-28T23:15:18.729Z,8.19
2023-04-28T23:17:46.463Z,8.16
2023-04-28T23:20:14.228Z,8.06
2023-04-28T23:22:41.448Z,8.07
2023-04-28T23:25:09.421Z,8.12
2023-04-28T23:27:37.421Z,8.09
2023-04-28T23:30:06.290Z,8.10
2023-04-28T23:32:33.637Z,8.09
2023-04-28T23:35:01.187Z,7.88
2023-04-28T23:37:28.438Z,7.94
2023-04-28T23:39:56.200Z,7.94
2023-04-28T23:42:23.443Z,7.99
2023-04-28T23:44:52.736Z,7.94
2023-04-28T23:47:20.084Z,7.90
2023-04-28T23:49:48.303Z,7.91
2023-04-28T23:52:15.793Z,7.94
2023-04-28T23:54:43.428Z,8.01
2023-04-28T23:57:11.100Z,8.09
2023-04-28T23:59:38.576Z,8.12
